Skip Navigation Linkwww.weather.gov 
NOAA logo - Select to go to the NOAA homepage National Weather Service
 Headquarters Office   NWS logo
NWS Office of the Chief Information Officer/Telecommunication Operations Center
 
   

Current Weather Conditions:
Station name not available

(

Conditions at

2022.11.25 1300 UTC
Wind from the ENE (070 degrees) at 9 MPH (8 KT)
Visibility greater than 7 mile(s)
Sky conditions mostly cloudy
Weather Cumulonimbus clouds observed
Temperature 78 F (26 C)
Dew Point 77 F (25 C)
Relative Humidity 94%
Pressure (altimeter) 29.88 in. Hg (1012 hPa)
ob SYEC 251300Z 07008KT 9999 FEW015CB SCT036 BKN080 26/25 Q1012 NOSIG RMK CB NNW-NE METAR SYEC 251400Z 08008KT 9999 FEW015CB SCT036 BKN080 26/25 Q1012 NOSIG RMK CB NNW-NE METAR SYEC 251500Z 09008KT 9999 -SHRA FEW015CB SCT016 BKN080 28/25 Q1012 NOSIG RMK CB NW-NE

24 Hour Summary

Time
EST (UTC)
Temperature
F (C)
Dew Point
F (C)
Pressure
Inches (hPa)
Wind
MPH
Weather
Latest 8 AM (13) Nov 25 78 (26) 77 (25) 29.88 (1012) ENE 9
7 AM (12) Nov 25 77 (25) 75 (24) 29.88 (1012) ENE 7
6 AM (11) Nov 25 75 (24) 75 (24) 29.85 (1011) NE 7
5 AM (10) No Data
4 AM (9) No Data
3 AM (8) No Data
2 AM (7) No Data
1 AM (6) No Data
Midnight (5) No Data
11 PM (4) No Data
10 PM (3) No Data
9 PM (2) No Data
8 PM (1) No Data
7 PM (0) No Data
6 PM (23) No Data
5 PM (22) No Data
4 PM (21) No Data
3 PM (20) No Data
2 PM (19) No Data
1 PM (18) No Data
Noon (17) No Data
11 AM (16) No Data
10 AM (15) No Data
Oldest 9 AM (14) No Data
Time
EST (UTC)
Temperature
F(C)
Dew Point
F(C)
Pressure
Inches(hPa)
Wind
(MPH)
Weather

The information presented here is taken from products produced by the U.S. National Weather Service and other national and international agencies




US Dept of Commerce
National Oceanic and Atmospheric Administration
National Weather Service
1325 East West Highway
Silver Spring, MD 20910
Page Author: NWS Internet Services Team
Disclaimer
Feedback
Privacy Notice
Credits